Time;durP1;ratioP1;P1;durP2;ratioP2;P2;SDS_P1;SDS_P2;PMS_P1;PMS_P2;Temp;Humidity;BMP_temperature;BMP_pressure;BME280_temperature;BME280_humidity;BME280_pressure;Samples;Min_cycle;Max_cycle;Signal;HPM_P1;HPM_P2
2022/12/30 00:00:48;;;;;;;0.63;0.63;;;9.50;99.90;;;9.68;93.14;100446.69;4992186;28;20620;-66
2022/12/30 00:03:17;;;;;;;0.67;0.67;;;9.50;99.90;;;9.78;92.79;100447.69;4990780;28;20643;-65
2022/12/30 00:05:44;;;;;;;0.57;0.57;;;9.50;99.90;;;9.71;92.41;100456.91;4993869;28;20727;-66
2022/12/30 00:10:56;;;;;;;2.10;0.40;;;9.40;99.90;;;9.60;93.33;100454.22;4994193;28;21236;-65
2022/12/30 00:34:32;;;;;;;1.33;0.50;;;9.20;99.90;;;9.17;93.57;100448.56;4995542;28;20626;-64
2022/12/30 00:36:59;;;;;;;0.70;0.70;;;9.10;99.90;;;9.17;93.10;100444.19;5008722;28;20657;-65
2022/12/30 00:39:26;;;;;;;1.50;0.70;;;9.10;99.90;;;9.09;93.62;100453.47;4994371;28;20625;-65
2022/12/30 00:44:38;;;;;;;0.77;0.53;;;9.00;99.90;;;9.12;93.76;100456.69;4994205;28;20634;-65
2022/12/30 00:47:06;;;;;;;1.60;0.40;;;9.00;99.90;;;9.02;94.28;100462.63;4975579;28;20625;-65
2022/12/30 00:57:51;;;;;;;0.60;0.60;;;8.90;99.90;;;8.93;92.60;100474.50;4993906;28;20636;-65
2022/12/30 01:00:18;;;;;;;3.63;0.70;;;8.90;99.90;;;8.97;92.44;100483.75;4993693;28;20648;-65
2022/12/30 01:02:45;;;;;;;0.77;0.70;;;8.90;99.90;;;9.03;91.11;100480.72;4994911;28;20676;-65
2022/12/30 01:05:12;;;;;;;1.23;0.40;;;8.90;99.90;;;9.11;89.86;100488.88;4985413;28;21014;-62
2022/12/30 01:07:39;;;;;;;0.97;0.60;;;8.90;99.90;;;9.10;89.83;100487.19;4994381;28;20641;-65
2022/12/30 01:10:06;;;;;;;0.50;0.50;;;8.90;99.90;;;9.02;89.82;100481.69;4992736;28;20662;-65
2022/12/30 01:12:33;;;;;;;0.70;0.70;;;8.90;99.90;;;9.18;89.31;100494.47;4994669;28;21234;-65
2022/12/30 01:15:00;;;;;;;2.13;1.00;;;8.90;99.90;;;9.05;89.22;100489.25;4991483;28;20666;-65
2022/12/30 01:17:31;;;;;;;1.63;1.00;;;8.90;99.90;;;8.95;90.16;100493.44;4993568;28;20634;-65
2022/12/30 01:19:59;;;;;;;0.90;0.90;;;8.90;99.90;;;9.02;89.54;100499.91;4991926;28;20648;-65
2022/12/30 01:22:26;;;;;;;0.80;0.80;;;8.90;99.90;;;9.00;89.88;100500.94;4994429;28;21303;-65
2022/12/30 01:24:53;;;;;;;0.73;0.67;;;8.80;99.90;;;9.03;89.68;100504.16;4993728;28;21201;-65
2022/12/30 01:27:20;;;;;;;1.80;0.70;;;8.80;99.90;;;9.15;88.16;100511.16;4994529;28;20631;-65
2022/12/30 01:29:48;;;;;;;5.00;1.10;;;8.90;99.90;;;8.99;89.05;100514.88;4992600;28;20663;-65
2022/12/30 01:32:20;;;;;;;1.07;0.97;;;8.90;99.90;;;8.96;89.13;100521.13;4991685;28;20634;-65
2022/12/30 01:34:47;;;;;;;1.00;0.90;;;8.80;99.90;;;9.00;88.71;100526.94;4973550;28;20627;-65
2022/12/30 01:37:14;;;;;;;1.27;1.17;;;8.80;99.90;;;9.02;88.49;100523.31;4975122;28;20620;-65
2022/12/30 01:39:41;;;;;;;1.70;1.20;;;8.80;99.90;;;9.00;88.19;100534.75;4973110;28;20638;-65
2022/12/30 01:42:23;;;;;;;8.53;1.00;;;8.80;99.90;;;9.02;87.65;100525.09;4992784;28;20649;-65
2022/12/30 01:45:24;;;;;;;1.80;0.60;;;8.80;99.90;;;9.20;86.26;100534.25;4993390;28;21228;-65
2022/12/30 01:48:06;;;;;;;0.50;0.50;;;8.90;99.90;;;8.94;87.21;100538.63;5000720;28;20720;-65
2022/12/30 01:50:48;;;;;;;0.73;0.73;;;8.90;99.90;;;8.93;87.50;100544.75;4980500;28;20674;-65
2022/12/30 01:53:16;;;;;;;0.83;0.60;;;8.80;99.90;;;8.70;89.13;100537.63;5035332;23;20685;-67
2022/12/30 01:55:48;;;;;;;0.67;0.43;;;8.70;99.90;;;8.74;88.87;100541.69;5031999;28;20651;-66
2022/12/30 01:58:24;;;;;;;0.60;0.60;;;8.70;99.90;;;8.55;89.32;100554.22;5030517;28;20620;-68
2022/12/30 02:00:51;;;;;;;0.90;0.90;;;8.60;99.90;;;8.55;90.41;100556.81;5013683;28;20655;-66
2022/12/30 02:03:18;;;;;;;1.13;0.70;;;8.50;99.90;;;8.49;90.95;100549.44;5040671;28;20652;-67
2022/12/30 02:05:47;;;;;;;1.43;0.80;;;8.50;99.90;;;8.21;92.76;100545.13;5011893;28;20642;-67
2022/12/30 02:08:18;;;;;;;0.50;0.50;;;8.30;99.90;;;8.38;91.67;100544.06;5036358;28;20626;-66
2022/12/30 02:10:49;;;;;;;1.47;0.70;;;8.30;99.90;;;8.30;92.66;100546.34;5030117;28;20690;-67
2022/12/30 02:13:18;;;;;;;2.93;0.70;;;8.20;99.90;;;8.28;93.05;100543.00;5011211;28;20626;-67
2022/12/30 02:16:10;;;;;;;0.53;0.53;;;8.20;99.90;;;8.35;92.39;100545.09;5014954;28;20638;-65
2022/12/30 02:18:50;;;;;;;0.60;0.60;;;8.30;99.90;;;8.34;92.41;100555.59;5030903;28;20632;-67
2022/12/30 02:22:06;;;;;;;1.47;1.10;;;8.20;99.90;;;8.30;92.00;100552.38;5037962;28;20628;-67
2022/12/30 02:24:52;;;;;;;2.07;1.03;;;8.20;99.90;;;8.33;91.77;100556.53;5037733;28;21019;-67
2022/12/30 02:27:54;;;;;;;0.53;0.53;;;8.20;99.90;;;8.41;91.37;100554.28;5019283;28;20655;-68
2022/12/30 02:30:39;;;;;;;2.40;0.77;;;8.20;99.90;;;8.35;91.46;100560.69;5053895;28;21328;-68
2022/12/30 02:33:26;;;;;;;1.07;0.60;;;8.20;99.90;;;8.35;90.75;100570.25;5012118;28;20637;-67
2022/12/30 02:36:19;;;;;;;0.53;0.43;;;8.30;99.90;;;8.40;90.69;100578.59;5022864;28;20630;-67
2022/12/30 02:39:02;;;;;;;0.50;0.50;;;8.30;99.90;;;8.28;90.86;100584.59;5046626;28;20638;-67
2022/12/30 02:44:38;;;;;;;3.90;0.70;;;8.10;99.90;;;8.24;90.90;100580.50;5030497;28;20629;-67
2022/12/30 02:47:30;;;;;;;1.13;0.60;;;8.10;99.90;;;8.22;90.44;100590.16;5035908;28;20733;-67
2022/12/30 02:52:53;;;;;;;0.50;0.50;;;8.10;99.90;;;8.34;90.59;100589.41;5019046;28;20668;-67
2022/12/30 02:55:20;;;;;;;1.90;0.40;;;8.10;99.90;;;8.31;89.99;100585.22;5017502;28;21067;-67
2022/12/30 02:57:47;;;;;;;0.83;0.50;;;8.10;99.90;;;8.24;90.79;100583.09;5024392;28;20643;-67
2022/12/30 03:07:01;;;;;;;1.17;0.60;;;8.10;99.90;;;8.25;90.59;100577.81;5021775;28;20647;-68
2022/12/30 03:13:34;;;;;;;0.60;0.60;;;8.10;99.90;;;8.28;90.31;100582.00;5034371;28;21063;-67
2022/12/30 03:16:26;;;;;;;0.70;0.50;;;8.20;99.90;;;8.47;89.62;100585.09;5041406;28;20627;-67
2022/12/30 03:18:55;;;;;;;0.63;0.63;;;8.20;99.90;;;8.46;89.33;100584.25;5028073;28;20634;-67
2022/12/30 03:21:25;;;;;;;1.17;1.07;;;8.30;99.90;;;8.50;89.92;100579.69;5059137;28;20653;-67
2022/12/30 03:27:05;;;;;;;0.80;0.47;;;8.30;99.90;;;8.31;90.55;100576.59;5023900;28;20640;-66
2022/12/30 03:29:50;;;;;;;0.27;0.27;;;8.30;99.90;;;8.22;92.06;100577.16;5016450;28;20621;-67
2022/12/30 03:32:18;;;;;;;0.37;0.37;;;8.20;99.90;;;8.08;93.39;100582.38;5027182;28;20712;-67
2022/12/30 03:34:47;;;;;;;0.50;0.50;;;8.10;99.90;;;8.23;92.16;100581.41;5030277;28;20621;-66
2022/12/30 03:37:48;;;;;;;2.00;0.60;;;8.10;99.90;;;8.12;93.00;100589.88;5017384;28;21293;-67
2022/12/30 03:40:30;;;;;;;1.53;0.60;;;8.10;99.90;;;8.08;93.23;100588.41;5008954;28;20617;-67
2022/12/30 03:42:58;;;;;;;1.77;0.87;;;8.00;99.90;;;8.01;94.38;100594.09;5007332;28;20653;-67
2022/12/30 03:45:26;;;;;;;1.23;0.50;;;8.00;99.90;;;7.85;95.02;100591.59;5009956;28;20652;-67
2022/12/30 03:47:52;;;;;;;0.30;0.30;;;7.90;99.90;;;8.02;94.55;100590.53;5026093;28;20649;-67
2022/12/30 03:50:20;;;;;;;0.80;0.73;;;7.90;99.90;;;7.88;95.11;100587.97;5026146;28;21273;-67
2022/12/30 03:52:47;;;;;;;1.27;0.40;;;8.00;99.90;;;7.93;95.51;100578.97;5040813;28;20678;-67
2022/12/30 03:55:14;;;;;;;0.33;0.33;;;7.90;99.90;;;8.05;94.29;100591.19;5038625;28;20647;-67
2022/12/30 03:57:41;;;;;;;1.70;0.50;;;7.90;99.90;;;7.80;96.02;100584.06;5048839;28;20953;-65
2022/12/30 04:00:09;;;;;;;3.07;0.30;;;7.80;99.90;;;7.69;96.13;100578.69;5028827;28;21061;-67
2022/12/30 04:02:38;;;;;;;0.47;0.47;;;7.80;99.90;;;7.49;97.21;100581.69;5037740;28;20663;-66
2022/12/30 04:05:07;;;;;;;0.70;0.63;;;7.60;99.90;;;7.59;97.09;100577.59;5046908;28;20617;-67
2022/12/30 04:07:34;;;;;;;0.50;0.50;;;7.60;99.90;;;7.54;97.70;100574.44;5021461;28;20637;-67
2022/12/30 04:10:03;;;;;;;1.00;0.83;;;7.60;99.90;;;7.53;97.87;100571.94;5045443;28;20664;-67
2022/12/30 04:12:30;;;;;;;0.97;0.70;;;7.60;99.90;;;7.55;97.55;100567.47;5058020;28;21224;-66
2022/12/30 04:14:57;;;;;;;0.50;0.50;;;7.60;99.90;;;7.61;97.14;100557.56;5034677;28;20672;-67
2022/12/30 04:17:24;;;;;;;5.30;1.03;;;7.60;99.90;;;7.68;97.04;100561.47;5048716;28;21200;-67
2022/12/30 04:19:51;;;;;;;1.03;0.50;;;7.70;99.90;;;7.60;96.44;100555.06;5021327;28;20642;-67
2022/12/30 04:22:18;;;;;;;0.40;0.30;;;7.70;99.90;;;7.61;96.90;100560.16;5020872;28;21246;-67
2022/12/30 04:24:45;;;;;;;1.50;0.60;;;7.60;99.90;;;7.54;97.63;100556.25;5028561;28;21083;-67
2022/12/30 04:27:12;;;;;;;0.80;0.50;;;7.60;99.90;;;7.58;97.00;100560.31;5038469;28;20762;-67
2022/12/30 04:29:39;;;;;;;1.47;0.70;;;7.60;99.90;;;7.56;97.24;100553.59;5034352;28;20644;-67
2022/12/30 04:32:06;;;;;;;0.50;0.50;;;7.60;99.90;;;7.54;97.73;100565.78;5030288;28;20739;-67
2022/12/30 04:34:33;;;;;;;0.90;0.40;;;7.50;99.90;;;7.61;97.15;100561.91;5054149;28;20636;-67
2022/12/30 04:37:00;;;;;;;0.57;0.57;;;7.60;99.90;;;7.48;98.56;100569.59;5012191;28;20624;-67
2022/12/30 04:39:26;;;;;;;0.30;0.30;;;7.50;99.90;;;7.50;98.02;100569.50;5023508;28;20991;-67
2022/12/30 04:41:53;;;;;;;1.00;1.00;;;7.50;99.90;;;7.56;97.85;100569.97;5022706;28;20643;-67
2022/12/30 04:44:20;;;;;;;0.30;0.30;;;7.50;99.90;;;7.38;99.11;100575.44;5049066;28;20636;-66
2022/12/30 04:46:47;;;;;;;0.30;0.30;;;7.40;99.90;;;7.43;98.74;100568.22;5053545;28;20628;-67
2022/12/30 04:49:14;;;;;;;0.60;0.57;;;7.40;99.90;;;7.45;98.26;100577.56;5048667;28;20628;-66
2022/12/30 04:51:41;;;;;;;5.90;0.90;;;7.40;99.90;;;7.36;98.78;100587.69;5039344;28;20664;-67
2022/12/30 04:54:08;;;;;;;3.20;0.93;;;7.40;99.90;;;7.39;98.82;100577.13;5027319;28;20669;-67
2022/12/30 04:56:35;;;;;;;1.03;0.57;;;7.40;99.90;;;7.26;99.39;100571.78;5032833;28;20639;-67
2022/12/30 04:59:02;;;;;;;0.53;0.53;;;7.30;99.90;;;7.12;100.00;100576.97;5032907;28;21281;-66
2022/12/30 05:01:29;;;;;;;1.93;0.53;;;7.20;99.90;;;7.14;100.00;100580.31;5032387;28;20629;-67
2022/12/30 05:03:56;;;;;;;0.40;0.40;;;7.20;99.90;;;7.11;100.00;100582.25;5039369;28;20698;-66
2022/12/30 05:06:23;;;;;;;0.53;0.50;;;7.20;99.90;;;7.14;100.00;100588.09;5049116;28;20647;-67
2022/12/30 05:08:50;;;;;;;0.40;0.40;;;7.10;99.90;;;7.24;100.00;100588.41;5034654;28;20654;-66
2022/12/30 05:11:17;;;;;;;0.40;0.40;;;7.20;99.90;;;7.12;100.00;100589.94;5038199;28;21350;-67
2022/12/30 05:13:44;;;;;;;0.60;0.60;;;7.10;99.90;;;7.12;100.00;100600.31;5028473;28;20648;-67
2022/12/30 05:16:13;;;;;;;0.53;0.53;;;7.10;99.90;;;7.05;100.00;100599.84;5034238;28;20628;-67
2022/12/30 05:18:40;;;;;;;0.40;0.40;;;7.10;99.90;;;7.06;100.00;100595.50;5033382;28;20632;-67
2022/12/30 05:21:07;;;;;;;0.50;0.50;;;7.10;99.90;;;7.10;100.00;100590.94;5025809;28;20636;-66
2022/12/30 05:26:20;;;;;;;0.83;0.53;;;7.10;99.90;;;7.19;100.00;100600.81;5022724;28;20996;-67
2022/12/30 05:28:48;;;;;;;0.50;0.50;;;7.10;99.90;;;7.03;100.00;100603.44;5050555;28;21212;-67
2022/12/30 05:31:18;;;;;;;1.83;0.97;;;7.10;99.90;;;6.97;100.00;100599.47;5014418;28;20751;-67
2022/12/30 05:33:45;;;;;;;0.53;0.53;;;7.00;99.90;;;7.04;100.00;100597.34;5028202;28;20691;-67
2022/12/30 05:36:13;;;;;;;0.60;0.60;;;7.10;99.90;;;6.98;100.00;100595.13;5013075;28;20610;-67
2022/12/30 05:38:41;;;;;;;4.20;0.47;;;7.00;99.90;;;6.95;100.00;100598.72;5012164;28;20613;-66
2022/12/30 05:41:09;;;;;;;1.70;1.07;;;7.00;99.90;;;6.82;100.00;100602.09;5012759;28;20993;-67
2022/12/30 05:43:47;;;;;;;0.50;0.50;;;6.90;99.90;;;6.88;100.00;100606.91;5012785;28;20648;-67
2022/12/30 05:46:14;;;;;;;0.87;0.87;;;6.90;99.90;;;6.91;100.00;100614.53;5028776;28;20613;-67
2022/12/30 05:48:41;;;;;;;0.60;0.47;;;6.90;99.90;;;6.92;100.00;100618.81;5028143;28;20632;-67
2022/12/30 05:51:08;;;;;;;1.20;0.83;;;7.00;99.90;;;6.89;100.00;100608.59;5016945;28;20649;-66
2022/12/30 05:53:35;;;;;;;2.87;1.37;;;7.00;99.90;;;7.07;100.00;100606.72;5029375;28;20717;-67
2022/12/30 05:56:03;;;;;;;1.63;1.13;;;7.00;99.90;;;6.91;100.00;100609.34;5032467;28;20998;-67
2022/12/30 05:58:30;;;;;;;0.63;0.63;;;6.90;99.90;;;7.05;100.00;100611.97;5031880;28;20679;-66
2022/12/30 06:00:57;;;;;;;0.40;0.40;;;7.00;99.90;;;7.13;100.00;100616.75;5031642;28;20641;-67
2022/12/30 06:03:25;;;;;;;0.50;0.50;;;7.00;99.90;;;7.10;100.00;100620.34;5031414;28;20751;-67
2022/12/30 06:05:57;;;;;;;0.83;0.83;;;7.10;99.90;;;7.19;100.00;100622.41;5033814;28;20631;-67
2022/12/30 06:08:25;;;;;;;0.60;0.60;;;7.10;99.90;;;7.36;100.00;100626.59;5014988;28;20715;-67
2022/12/30 06:10:51;;;;;;;0.50;0.50;;;7.10;99.90;;;7.38;100.00;100622.16;5030507;28;20665;-67
2022/12/30 06:13:18;;;;;;;1.63;0.80;;;7.20;99.90;;;7.24;100.00;100622.97;5031790;28;20649;-67
2022/12/30 06:15:45;;;;;;;1.30;1.00;;;7.20;99.90;;;7.18;100.00;100625.06;5045969;28;20631;-65
2022/12/30 06:18:12;;;;;;;1.27;1.17;;;7.20;99.90;;;7.28;100.00;100610.66;5046628;28;20636;-65
2022/12/30 06:20:39;;;;;;;0.97;0.70;;;7.20;99.90;;;7.13;100.00;100604.59;5047353;28;20646;-67
2022/12/30 06:23:06;;;;;;;0.50;0.50;;;7.20;99.90;;;7.00;100.00;100612.25;5022830;28;20658;-65
2022/12/30 06:25:33;;;;;;;2.37;0.67;;;7.10;99.90;;;7.04;100.00;100608.56;5046618;28;21198;-66
2022/12/30 06:28:00;;;;;;;0.90;0.80;;;7.00;99.90;;;6.95;100.00;100609.09;5027979;28;20624;-66
2022/12/30 06:30:27;;;;;;;0.50;0.50;;;7.00;99.90;;;6.97;100.00;100602.06;5034270;28;20711;-66
2022/12/30 06:32:59;;;;;;;0.93;0.93;;;7.00;99.90;;;6.77;100.00;100607.53;5024862;28;20649;-66
2022/12/30 06:35:26;;;;;;;3.77;0.60;;;6.90;99.90;;;6.73;100.00;100602.63;5043529;28;20620;-66
2022/12/30 06:37:53;;;;;;;0.83;0.80;;;6.80;99.90;;;6.78;100.00;100596.25;5035621;28;20670;-66
2022/12/30 06:40:20;;;;;;;0.40;0.40;;;6.80;99.90;;;6.73;100.00;100602.63;5022970;28;21047;-64
2022/12/30 06:42:47;;;;;;;0.68;0.68;;;6.70;99.90;;;6.74;100.00;100607.72;5019029;28;20645;-66
2022/12/30 06:45:14;;;;;;;1.20;1.10;;;6.70;99.90;;;6.72;100.00;100612.16;5030935;28;20234;-66
2022/12/30 06:47:41;;;;;;;0.80;0.80;;;6.70;99.90;;;6.61;100.00;100604.13;5042717;28;20632;-66
2022/12/30 06:50:09;;;;;;;0.50;0.40;;;6.70;99.90;;;6.52;100.00;100606.38;5041292;28;20206;-67
2022/12/30 06:52:36;;;;;;;0.80;0.80;;;6.70;99.90;;;6.58;100.00;100599.09;5019597;28;20673;-66
2022/12/30 06:55:04;;;;;;;0.43;0.43;;;6.60;99.90;;;6.50;100.00;100595.28;5019136;28;20633;-66
2022/12/30 06:57:33;;;;;;;0.60;0.60;;;6.60;99.90;;;6.50;100.00;100595.28;5024442;28;20655;-66
2022/12/30 07:00:01;;;;;;;1.47;0.50;;;6.60;99.90;;;6.52;100.00;100589.09;5023062;28;20637;-66
2022/12/30 07:02:28;;;;;;;0.40;0.40;;;6.50;99.90;;;6.51;100.00;100599.56;5029695;28;21231;-66
2022/12/30 07:04:55;;;;;;;0.50;0.50;;;6.50;99.90;;;6.38;100.00;100606.34;5027245;28;21080;-64
2022/12/30 07:07:22;;;;;;;1.83;1.03;;;6.50;99.90;;;6.34;100.00;100599.66;5023073;28;20748;-66
2022/12/30 07:09:49;;;;;;;0.70;0.70;;;6.40;99.90;;;6.41;100.00;100598.41;5027981;28;20637;-66
2022/12/30 07:12:16;;;;;;;0.50;0.50;;;6.50;99.90;;;6.36;100.00;100596.06;5019632;28;20676;-66
2022/12/30 07:14:43;;;;;;;1.10;0.47;;;6.40;99.90;;;6.43;100.00;100588.78;5054438;28;20195;-66
2022/12/30 07:17:10;;;;;;;0.80;0.80;;;6.40;99.90;;;6.56;100.00;100592.38;5035618;28;20632;-66
2022/12/30 07:19:37;;;;;;;1.30;1.20;;;6.50;99.90;;;6.52;100.00;100588.25;5026277;28;20677;-66
2022/12/30 07:22:05;;;;;;;1.13;1.03;;;6.50;99.90;;;6.38;100.00;100583.84;5021296;28;20210;-67
2022/12/30 07:24:32;;;;;;;0.88;0.85;;;6.50;99.90;;;6.46;100.00;100583.41;5029801;28;20621;-66
2022/12/30 07:26:59;;;;;;;1.58;1.10;;;6.50;99.90;;;6.49;100.00;100578.91;5055316;28;20497;-66
2022/12/30 07:29:25;;;;;;;0.60;0.60;;;6.50;99.90;;;6.61;100.00;100580.81;5043122;28;20198;-66
2022/12/30 07:31:52;;;;;;;0.55;0.55;;;6.50;99.90;;;6.63;100.00;100580.72;5037770;28;20661;-66
2022/12/30 07:34:19;;;;;;;0.70;0.70;;;6.60;99.90;;;6.66;100.00;100583.16;5019703;28;20195;-66
2022/12/30 07:36:46;;;;;;;0.80;0.80;;;6.60;99.90;;;6.73;100.00;100587.06;5018131;28;20687;-66
2022/12/30 07:39:13;;;;;;;1.10;0.77;;;6.70;99.90;;;6.81;100.00;100577.94;5010801;28;20617;-67
2022/12/30 07:41:40;;;;;;;1.13;1.00;;;6.70;99.90;;;6.92;100.00;100588.50;5009365;28;20649;-66
2022/12/30 07:44:07;;;;;;;0.70;0.70;;;6.80;99.90;;;6.93;100.00;100589.34;5011157;28;20633;-66
2022/12/30 07:46:34;;;;;;;1.23;1.10;;;6.80;99.90;;;7.01;100.00;100584.53;5018659;28;20633;-66
2022/12/30 07:49:01;;;;;;;1.40;1.30;;;6.90;99.90;;;7.01;100.00;100582.78;5021725;28;20633;-65
2022/12/30 07:51:28;;;;;;;0.90;0.83;;;7.00;99.90;;;7.24;100.00;100588.41;5012980;28;20669;-67
2022/12/30 07:53:57;;;;;;;1.47;0.77;;;7.10;99.90;;;7.30;100.00;100599.25;5061938;23;21213;-68
2022/12/30 07:56:33;;;;;;;0.90;0.90;;;7.20;99.90;;;7.24;100.00;100596.19;5020551;28;20640;-68
2022/12/30 07:58:59;;;;;;;1.17;0.90;;;7.20;99.90;;;7.31;100.00;100598.31;5008387;28;20626;-68
2022/12/30 08:01:26;;;;;;;0.73;0.60;;;7.30;99.90;;;7.61;100.00;100593.06;5015814;28;21209;-68
2022/12/30 08:03:53;;;;;;;0.60;0.60;;;7.40;99.90;;;7.57;100.00;100587.22;5029270;28;20679;-68
2022/12/30 08:06:20;;;;;;;0.90;0.60;;;7.50;99.90;;;7.70;100.00;100592.53;5023543;28;20634;-68
2022/12/30 08:08:47;;;;;;;0.97;0.97;;;7.60;99.90;;;7.57;100.00;100587.22;5024270;28;21216;-67
2022/12/30 08:11:15;;;;;;;0.83;0.83;;;7.50;99.90;;;7.50;100.00;100595.47;5029323;28;20684;-68
2022/12/30 08:13:44;;;;;;;0.90;0.90;;;7.60;99.90;;;7.76;100.00;100582.59;5027305;28;21307;-67
2022/12/30 08:16:14;;;;;;;0.97;0.97;;;7.60;99.90;;;7.89;100.00;100581.84;5017504;28;20621;-69
2022/12/30 08:18:42;;;;;;;1.27;1.00;;;7.80;99.90;;;8.03;100.00;100572.25;5010638;28;20665;-69
2022/12/30 08:21:13;;;;;;;1.70;0.87;;;7.90;99.90;;;8.07;100.00;100560.72;5010029;28;20688;-69
2022/12/30 08:23:46;;;;;;;2.87;1.27;;;8.00;99.90;;;8.62;99.60;100562.47;5012612;28;20659;-70
2022/12/30 08:26:17;;;;;;;2.00;1.83;;;8.20;99.90;;;9.47;95.32;100562.78;5031292;28;20995;-67
2022/12/30 08:28:45;;;;;;;3.53;1.53;;;8.70;99.90;;;10.00;90.19;100555.53;5023635;28;20679;-68
2022/12/30 08:31:24;;;;;;;1.27;1.20;;;9.30;99.90;;;10.96;83.56;100549.38;5032112;28;20656;-67
2022/12/30 08:33:52;;;;;;;0.77;0.77;;;9.90;99.90;;;11.18;81.74;100538.97;5016540;28;20660;-67
2022/12/30 08:36:23;;;;;;;1.43;1.20;;;10.30;99.90;;;11.40;80.77;100540.78;5020680;28;20625;-67
2022/12/30 08:38:54;;;;;;;1.33;1.23;;;10.60;99.90;;;12.54;77.29;100536.00;5032804;28;20617;-67
2022/12/30 08:41:27;;;;;;;2.83;0.77;;;11.20;99.90;;;12.37;76.16;100524.28;5032624;28;20624;-68
2022/12/30 08:43:58;;;;;;;1.53;0.80;;;11.50;99.90;;;12.65;74.55;100517.63;5014598;28;20650;-68
2022/12/30 08:46:28;;;;;;;2.50;1.40;;;11.80;99.90;;;11.34;78.22;100517.72;5013707;28;20648;-69
2022/12/30 08:48:55;;;;;;;1.00;0.90;;;11.50;99.90;;;11.24;80.63;100516.78;5021343;28;20672;-67
2022/12/30 08:51:22;;;;;;;1.00;1.00;;;11.10;99.90;;;11.72;78.22;100514.78;5027485;28;20704;-67
2022/12/30 08:53:49;;;;;;;0.60;0.47;;;11.20;99.90;;;11.14;80.12;100505.38;5031675;28;21290;-68
2022/12/30 08:56:27;;;;;;;1.57;0.80;;;11.00;99.90;;;11.19;79.09;100504.06;5018037;28;21001;-67
2022/12/30 08:58:56;;;;;;;0.60;0.33;;;11.00;99.90;;;11.61;77.99;100495.53;5024817;28;20621;-67
2022/12/30 09:01:29;;;;;;;1.20;1.17;;;11.10;99.90;;;12.04;75.77;100500.00;5023806;28;20641;-67
2022/12/30 09:03:57;;;;;;;0.80;0.80;;;11.40;99.90;;;12.48;73.57;100499.03;5016274;28;21030;-67
2022/12/30 09:06:28;;;;;;;1.10;1.10;;;11.70;99.90;;;13.10;71.06;100498.13;5013331;28;20616;-67
2022/12/30 09:08:57;;;;;;;4.93;0.70;;;12.10;99.90;;;12.83;71.73;100508.25;5013181;28;20634;-68
2022/12/30 09:11:31;;;;;;;1.03;1.03;;;12.20;99.90;;;12.24;73.85;100507.09;5013299;28;20666;-66
2022/12/30 09:14:00;;;;;;;1.07;1.07;;;11.80;99.90;;;11.05;78.39;100500.84;5031360;28;20653;-68
2022/12/30 09:16:29;;;;;;;2.30;1.30;;;11.40;99.90;;;10.50;81.49;100494.53;5021372;28;20609;-68
2022/12/30 09:18:56;;;;;;;0.87;0.83;;;10.90;99.90;;;10.34;82.71;100482.72;5021547;28;20680;-67
2022/12/30 09:21:23;;;;;;;2.27;1.20;;;10.40;99.90;;;10.28;82.38;100478.81;5019418;28;21086;-67
2022/12/30 09:23:50;;;;;;;2.57;1.63;;;10.30;99.90;;;10.04;83.50;100473.56;5015615;28;20661;-65
2022/12/30 09:26:24;;;;;;;3.73;1.13;;;10.00;99.90;;;10.18;83.76;100469.16;5021356;28;20633;-68
2022/12/30 09:28:52;;;;;;;0.63;0.60;;;9.90;99.90;;;9.99;84.71;100467.00;5020882;28;20705;-67
2022/12/30 09:31:19;;;;;;;0.80;0.80;;;9.80;99.90;;;9.84;85.80;100460.28;5018020;28;20661;-67
2022/12/30 09:33:46;;;;;;;0.60;0.60;;;9.70;99.90;;;9.72;86.58;100464.59;5026060;28;22979;-66
2022/12/30 09:36:13;;;;;;;1.60;1.07;;;9.60;99.90;;;9.81;85.89;100444.88;5014645;28;20620;-67
2022/12/30 09:38:41;;;;;;;2.93;0.80;;;9.60;99.90;;;9.61;86.84;100443.69;5022545;28;20621;-67
2022/12/30 09:45:22;;;;;;;0.60;0.60;;;9.50;99.90;;;9.19;88.68;100436.28;5028119;28;20661;-67
2022/12/30 09:47:59;;;;;;;0.50;0.50;;;9.30;99.90;;;9.41;88.56;100438.22;5027686;28;20715;-67
2022/12/30 09:50:43;;;;;;;0.67;0.67;;;9.30;99.90;;;9.51;87.70;100431.41;5020693;28;20662;-67
2022/12/30 09:53:28;;;;;;;1.23;1.13;;;9.30;99.90;;;9.22;89.75;100434.28;5029605;28;20695;-67
2022/12/30 09:56:04;;;;;;;0.83;0.50;;;9.20;99.90;;;9.31;88.90;100441.47;5009803;28;20632;-66
2022/12/30 09:58:34;;;;;;;1.03;1.03;;;9.20;99.90;;;9.38;88.17;100439.25;5024323;28;20616;-66
2022/12/30 10:01:23;;;;;;;0.60;0.60;;;9.30;99.90;;;9.45;87.31;100431.84;5013088;28;20659;-67
2022/12/30 10:03:56;;;;;;;1.63;0.50;;;9.30;99.90;;;9.26;88.83;100432.31;5020519;28;20999;-66
2022/12/30 10:06:28;;;;;;;0.83;0.50;;;9.20;99.90;;;9.35;88.14;100418.63;5019525;28;20620;-67
2022/12/30 10:09:32;;;;;;;1.40;0.97;;;9.20;99.90;;;9.61;87.11;100414.19;5010669;28;21030;-68
2022/12/30 10:12:11;;;;;;;0.77;0.77;;;9.20;99.90;;;9.66;86.30;100412.94;5010920;28;21295;-66
2022/12/30 10:14:50;;;;;;;0.50;0.50;;;9.40;99.90;;;9.40;87.49;100411.34;5027829;28;20653;-67
2022/12/30 10:17:57;;;;;;;0.70;0.70;;;9.40;99.90;;;9.73;85.11;100424.56;5037023;28;20642;-67
2022/12/30 10:21:04;;;;;;;0.50;0.50;;;9.50;99.90;;;9.70;84.81;100409.16;5025459;28;20655;-67
2022/12/30 10:24:08;;;;;;;0.57;0.57;;;9.50;99.90;;;9.89;83.21;100399.06;5022581;28;21298;-68
2022/12/30 10:26:57;;;;;;;0.50;0.40;;;9.60;99.90;;;9.66;82.68;100381.69;5016861;28;21007;-70
2022/12/30 10:29:30;;;;;;;0.30;0.30;;;9.60;99.90;;;9.77;82.14;100379.13;5026222;28;20653;-67
2022/12/30 10:32:28;;;;;;;0.90;0.60;;;9.70;99.90;;;9.93;81.40;100371.00;5030910;28;20706;-67
2022/12/30 10:35:10;;;;;;;0.70;0.50;;;9.70;99.90;;;9.96;81.61;100363.81;5014257;28;20650;-67
2022/12/30 10:37:37;;;;;;;0.50;0.50;;;9.70;99.90;;;10.16;80.89;100367.56;5011257;28;20624;-67
2022/12/30 10:40:15;;;;;;;0.60;0.60;;;9.80;99.90;;;10.00;81.63;100374.84;5017946;28;20977;-68
2022/12/30 10:43:25;;;;;;;0.30;0.30;;;9.80;99.90;;;10.07;81.25;100365.63;5011939;28;20695;-68
2022/12/30 10:46:16;;;;;;;0.40;0.40;;;9.90;99.90;;;10.33;79.59;100371.56;4994692;28;20613;-69
2022/12/30 10:49:10;;;;;;;0.93;0.63;;;10.00;99.90;;;10.35;79.46;100352.22;5012931;28;20625;-67
2022/12/30 10:51:37;;;;;;;0.40;0.40;;;10.10;99.90;;;10.50;79.05;100358.06;5018083;28;20664;-68
2022/12/30 10:54:04;;;;;;;0.60;0.60;;;10.10;99.90;;;10.36;80.04;100353.03;5020325;28;20691;-68
2022/12/30 10:56:35;;;;;;;1.50;0.37;;;10.10;99.90;;;10.31;80.20;100340.34;5031491;28;21204;-69
2022/12/30 10:59:18;;;;;;;0.50;0.50;;;10.10;99.90;;;10.39;80.56;100345.00;5015083;28;20652;-73
2022/12/30 11:01:47;;;;;;;3.50;0.53;;;10.10;99.90;;;10.25;81.57;100340.81;5017508;28;20609;-68
2022/12/30 11:04:34;;;;;;;2.23;0.70;;;10.10;99.90;;;10.27;80.84;100340.69;5015541;28;20724;-68
2022/12/30 11:07:05;;;;;;;0.40;0.40;;;10.10;99.90;;;10.17;81.30;100356.22;5024167;28;20629;-68
2022/12/30 11:09:32;;;;;;;0.77;0.30;;;10.10;99.90;;;10.24;80.31;100344.38;5024711;28;20630;-67
2022/12/30 11:15:27;;;;;;;0.50;0.50;;;10.10;99.90;;;10.26;80.37;100333.84;5011198;28;20670;-67
2022/12/30 11:17:56;;;;;;;0.40;0.40;;;10.10;99.90;;;10.31;80.18;100339.53;5020194;28;20647;-67
2022/12/30 11:20:41;;;;;;;0.40;0.40;;;10.10;99.90;;;10.23;80.45;100332.28;5020773;28;20679;-67
2022/12/30 11:23:35;;;;;;;0.40;0.40;;;10.10;99.90;;;9.98;81.43;100327.22;5038206;28;20664;-67
2022/12/30 11:26:07;;;;;;;0.50;0.50;;;10.00;99.90;;;10.14;81.00;100323.38;5022702;28;20642;-68
2022/12/30 11:28:38;;;;;;;0.87;0.87;;;10.00;99.90;;;10.27;80.06;100305.03;5037687;28;20629;-67
2022/12/30 11:31:13;;;;;;;0.60;0.60;;;10.00;99.90;;;10.24;80.27;100307.88;5026090;28;20640;-67
2022/12/30 11:33:51;;;;;;;0.90;0.80;;;10.00;99.90;;;10.21;80.76;100300.28;5021946;28;20675;-67
2022/12/30 11:36:21;;;;;;;0.60;0.60;;;10.00;99.90;;;9.83;82.14;100287.47;5045326;28;20639;-68
2022/12/30 11:38:50;;;;;;;0.40;0.40;;;9.90;99.90;;;9.91;82.60;100292.94;5015630;28;20657;-70
2022/12/30 11:41:26;;;;;;;0.53;0.43;;;9.80;99.90;;;9.76;83.49;100293.25;5018663;28;20632;-68
2022/12/30 11:43:59;;;;;;;0.50;0.43;;;9.70;99.90;;;9.78;83.66;100280.94;5030200;28;20636;-68
2022/12/30 11:46:32;;;;;;;0.40;0.40;;;9.70;99.90;;;10.00;82.52;100263.59;5019685;28;20647;-67